LIH weather

Lihue Airport
Lihue, Hawaii, United States

Public forecast

Using degrees Fahrenheit for public forecast. Weather courtesy of forecast.io.

Current aviation weather report (METAR) for Lihue Airport

Retrieved 2019/10/19 02:53 UTC (9 minutes ago):

PHLI 190253Z 06010KT 10SM FEW021 OVC050 27/22 A3004

Aviation forecast (TAF) for Lihue Airport

Retrieved 2019-10-19 00:28 UTC (3 hours ago):

TAF PHLI 182325Z 1900/1924 07014KT P6SM SCT025 BKN060 FM191200 07012KT P6SM VCSH SCT020 BKN045